createdAt,value
2022-11-09T00:01:18.214Z,280.67
2022-11-09T00:03:26.103Z,280.54
2022-11-09T00:05:31.904Z,278.51
2022-11-09T00:07:38.618Z,277.99
2022-11-09T00:09:45.081Z,266.10
2022-11-09T00:11:51.076Z,267.73
2022-11-09T00:13:57.721Z,266.24
2022-11-09T00:16:06.684Z,262.73
2022-11-09T00:18:12.726Z,257.93
2022-11-09T00:20:19.817Z,258.01
2022-11-09T00:22:25.562Z,250.94
2022-11-09T00:24:31.459Z,252.64
2022-11-09T00:26:38.026Z,253.71
2022-11-09T00:28:47.085Z,252.17
2022-11-09T00:30:52.856Z,258.91
2022-11-09T00:33:02.044Z,259.71
2022-11-09T00:35:10.034Z,271.29
2022-11-09T00:37:19.101Z,269.71
2022-11-09T00:39:25.729Z,267.78
2022-11-09T00:41:32.354Z,267.96
2022-11-09T00:43:38.658Z,265.64
2022-11-09T00:45:49.004Z,264.34
2022-11-09T00:47:54.776Z,259.78
2022-11-09T00:50:03.216Z,248.16
2022-11-09T00:52:09.855Z,235.81
2022-11-09T00:54:15.993Z,228.28
2022-11-09T00:56:21.812Z,226.17
2022-11-09T01:01:13.949Z,210.65
2022-11-09T01:03:21.919Z,210.59
2022-11-09T01:05:31.252Z,208.27
2022-11-09T01:07:37.016Z,209.75
2022-11-09T01:09:43.024Z,209.21
2022-11-09T01:12:20.645Z,213.66
2022-11-09T01:14:31.652Z,218.87
2022-11-09T01:16:38.503Z,211.26
2022-11-09T01:18:46.202Z,211.69
2022-11-09T01:20:54.891Z,211.89
2022-11-09T01:23:00.579Z,215.10
2022-11-09T01:25:12.099Z,218.35
2022-11-09T01:27:20.627Z,220.58
2022-11-09T01:29:26.434Z,228.80
2022-11-09T01:31:35.838Z,222.14
2022-11-09T01:33:42.660Z,223.23
2022-11-09T01:35:53.273Z,223.33
2022-11-09T01:37:59.783Z,221.58
2022-11-09T01:40:05.868Z,223.28
2022-11-09T01:42:12.257Z,231.28
2022-11-09T01:47:01.339Z,231.92
2022-11-09T01:49:16.599Z,238.31
2022-11-09T01:51:34.687Z,223.38
2022-11-09T01:53:49.063Z,225.85
2022-11-09T01:56:01.881Z,221.68
2022-11-09T01:58:16.145Z,220.95
2022-11-09T02:00:22.231Z,217.44
2022-11-09T02:03:28.719Z,209.91
2022-11-09T02:09:30.482Z,232.88
2022-11-09T02:11:41.635Z,205.62
2022-11-09T02:17:26.315Z,188.90
2022-11-09T02:19:36.165Z,184.27
2022-11-09T02:21:45.836Z,187.68
2022-11-09T02:23:56.694Z,192.49
2022-11-09T02:26:15.409Z,184.60
2022-11-09T02:28:21.546Z,179.65
2022-11-09T02:30:27.443Z,177.36
2022-11-09T02:32:35.366Z,170.62
2022-11-09T02:34:41.671Z,175.55
2022-11-09T02:36:50.717Z,177.29
2022-11-09T02:39:01.819Z,177.08
2022-11-09T02:41:08.346Z,174.97
2022-11-09T02:43:19.365Z,170.68
2022-11-09T02:45:29.307Z,177.36
2022-11-09T02:47:35.782Z,184.94
2022-11-09T02:49:49.511Z,168.67
2022-11-09T02:52:00.006Z,168.37
2022-11-09T02:54:07.930Z,165.72
2022-11-09T02:56:16.509Z,166.21
2022-11-09T02:58:24.055Z,169.69
2022-11-09T03:00:30.486Z,165.59
2022-11-09T03:02:38.203Z,164.04
2022-11-09T03:04:45.439Z,160.22
2022-11-09T03:06:51.522Z,167.30
2022-11-09T03:09:01.259Z,165.54
2022-11-09T03:11:09.108Z,163.72
2022-11-09T03:13:15.169Z,163.15
2022-11-09T03:15:21.119Z,161.82
2022-11-09T03:17:28.527Z,158.71
2022-11-09T03:19:34.309Z,158.18
2022-11-09T03:21:40.152Z,156.64
2022-11-09T03:23:46.691Z,154.63
2022-11-09T03:25:58.345Z,150.78
2022-11-09T03:28:07.259Z,159.23
2022-11-09T03:30:15.325Z,165.87
2022-11-09T03:32:21.685Z,163.85
2022-11-09T03:34:27.516Z,165.76
2022-11-09T03:36:34.059Z,168.24
2022-11-09T03:38:40.010Z,168.60
2022-11-09T03:40:45.861Z,171.46
2022-11-09T03:42:55.343Z,167.63
2022-11-09T03:45:02.824Z,161.28
2022-11-09T03:47:10.813Z,163.51
2022-11-09T03:49:33.938Z,163.78
2022-11-09T03:51:49.735Z,168.20
2022-11-09T03:53:57.008Z,173.74
2022-11-09T03:56:03.582Z,189.64
2022-11-09T03:58:16.092Z,177.60
2022-11-09T04:00:25.412Z,172.48
2022-11-09T04:02:32.034Z,166.58
2022-11-09T04:04:37.951Z,166.47
2022-11-09T04:06:43.766Z,173.93
2022-11-09T04:08:51.653Z,182.62
2022-11-09T04:10:58.354Z,174.95
2022-11-09T04:13:04.132Z,175.86
2022-11-09T04:15:16.156Z,176.99
2022-11-09T04:17:22.209Z,175.40
2022-11-09T04:19:29.329Z,176.93
2022-11-09T04:21:38.539Z,180.03
2022-11-09T04:23:44.256Z,181.63
2022-11-09T04:26:10.389Z,176.65
2022-11-09T04:28:19.701Z,188.04
2022-11-09T04:30:30.798Z,191.83
2022-11-09T04:32:36.577Z,194.19
2022-11-09T04:34:44.090Z,196.90
2022-11-09T04:36:49.846Z,202.51
2022-11-09T04:38:55.617Z,212.67
2022-11-09T04:41:08.555Z,213.86
2022-11-09T04:43:19.102Z,214.58
2022-11-09T04:45:31.189Z,218.60
2022-11-09T04:47:37.802Z,233.09
2022-11-09T04:49:43.490Z,246.36
2022-11-09T04:51:49.323Z,241.84
2022-11-09T04:53:56.484Z,252.26
2022-11-09T04:56:02.833Z,252.57
2022-11-09T05:01:17.225Z,227.23
2022-11-09T05:03:24.242Z,214.92
2022-11-09T05:05:30.245Z,216.02
2022-11-09T05:07:37.318Z,218.13
2022-11-09T05:09:50.344Z,203.89
2022-11-09T05:11:59.637Z,223.16
2022-11-09T05:14:08.255Z,212.18
2022-11-09T05:16:18.143Z,213.05
2022-11-09T05:18:23.845Z,208.08
2022-11-09T05:27:20.429Z,211.48
2022-11-09T05:29:38.858Z,212.46
2022-11-09T05:32:09.429Z,221.68
2022-11-09T05:34:43.825Z,233.96
2022-11-09T05:37:03.492Z,215.05
2022-11-09T05:39:13.633Z,216.32
2022-11-09T05:41:20.217Z,217.14
2022-11-09T05:43:33.164Z,212.78
2022-11-09T05:45:43.660Z,209.68
2022-11-09T05:47:52.380Z,209.78
2022-11-09T05:49:58.984Z,208.25
2022-11-09T05:52:12.003Z,204.03
2022-11-09T05:54:17.810Z,206.50
2022-11-09T05:56:24.548Z,203.68
2022-11-09T05:58:30.268Z,199.75
2022-11-09T06:00:36.796Z,203.36
2022-11-09T06:02:43.464Z,210.33
2022-11-09T06:04:51.774Z,206.24
2022-11-09T06:06:57.630Z,208.95
2022-11-09T06:09:07.414Z,214.31
2022-11-09T06:11:23.174Z,206.61
2022-11-09T06:13:30.539Z,206.99
2022-11-09T06:15:37.731Z,208.46
2022-11-09T06:17:43.458Z,200.70
2022-11-09T06:19:51.945Z,203.35
2022-11-09T06:21:58.496Z,197.33
2022-11-09T06:24:04.245Z,206.86
2022-11-09T06:26:13.536Z,209.63
2022-11-09T06:28:20.052Z,208.23
2022-11-09T06:30:26.264Z,212.72
2022-11-09T06:32:32.074Z,206.67
2022-11-09T06:34:38.623Z,205.93
2022-11-09T06:36:47.141Z,202.13
2022-11-09T06:38:53.686Z,202.15
2022-11-09T06:41:04.976Z,204.24
2022-11-09T06:43:19.209Z,209.76
2022-11-09T06:45:25.254Z,214.31
2022-11-09T06:47:31.915Z,212.21
2022-11-09T06:49:39.935Z,217.23
2022-11-09T06:51:53.048Z,221.80
2022-11-09T06:53:59.685Z,211.17
2022-11-09T06:56:08.330Z,225.04
2022-11-09T06:58:19.819Z,225.68
2022-11-09T07:00:32.928Z,229.28
2022-11-09T07:02:38.608Z,232.22
2022-11-09T07:04:44.281Z,227.61
2022-11-09T07:06:56.674Z,227.51
2022-11-09T07:09:03.673Z,229.66
2022-11-09T07:11:12.160Z,225.97
2022-11-09T07:13:18.981Z,223.31
2022-11-09T07:15:24.892Z,221.95
2022-11-09T07:17:33.794Z,219.67
2022-11-09T07:19:40.384Z,218.62
2022-11-09T07:21:46.050Z,217.90
2022-11-09T07:23:55.029Z,212.47
2022-11-09T07:26:02.199Z,213.09
2022-11-09T07:28:09.499Z,213.07
2022-11-09T07:30:16.650Z,220.01
2022-11-09T07:32:54.209Z,216.82
2022-11-09T07:34:55.704Z,212.15
2022-11-09T07:37:08.208Z,211.28
2022-11-09T07:39:18.120Z,209.48
2022-11-09T07:41:23.743Z,210.94
2022-11-09T07:43:33.711Z,216.99
2022-11-09T07:45:44.281Z,209.53
2022-11-09T07:47:50.044Z,200.86
2022-11-09T07:49:55.750Z,205.41
2022-11-09T07:52:02.259Z,215.76
2022-11-09T07:54:08.138Z,207.67
2022-11-09T07:56:16.607Z,202.79
2022-11-09T07:58:23.187Z,203.76
2022-11-09T08:00:31.876Z,191.05
2022-11-09T08:02:37.596Z,188.21
2022-11-09T08:04:45.284Z,184.59
2022-11-09T08:06:51.158Z,177.35
2022-11-09T08:08:58.026Z,187.27
2022-11-09T08:11:11.071Z,180.87
2022-11-09T08:13:19.743Z,176.50
2022-11-09T08:15:29.400Z,185.58
2022-11-09T08:17:36.246Z,178.20
2022-11-09T08:19:42.102Z,185.12
2022-11-09T08:21:47.905Z,181.28
2022-11-09T08:24:16.341Z,181.84
2022-11-09T08:26:22.144Z,193.50
2022-11-09T08:28:30.577Z,203.12
2022-11-09T08:30:37.309Z,206.71
2022-11-09T08:32:44.077Z,204.05
2022-11-09T08:34:54.252Z,198.31
2022-11-09T08:37:05.622Z,202.09
2022-11-09T08:39:12.439Z,195.26
2022-11-09T08:41:20.752Z,201.39
2022-11-09T08:43:27.647Z,219.37
2022-11-09T08:45:38.793Z,213.76
2022-11-09T08:47:46.334Z,207.70
2022-11-09T08:49:52.993Z,207.88
2022-11-09T08:51:58.742Z,212.63
2022-11-09T08:54:04.600Z,229.27
2022-11-09T08:56:13.151Z,243.66
2022-11-09T08:58:19.292Z,246.99
2022-11-09T09:00:35.506Z,217.31
2022-11-09T09:02:42.411Z,206.91
2022-11-09T09:04:48.271Z,190.80
2022-11-09T09:06:54.319Z,187.00
2022-11-09T09:09:01.075Z,182.58
2022-11-09T09:11:08.197Z,165.09
2022-11-09T09:13:13.948Z,165.32
2022-11-09T09:15:20.825Z,160.70
2022-11-09T09:17:29.771Z,158.23
2022-11-09T09:19:35.673Z,157.19
2022-11-09T09:21:46.900Z,159.36
2022-11-09T09:23:54.109Z,154.06
2022-11-09T09:26:01.185Z,148.42
2022-11-09T09:28:13.941Z,156.18
2022-11-09T09:30:20.897Z,157.91
2022-11-09T09:32:34.972Z,153.51
2022-11-09T09:34:41.678Z,155.02
2022-11-09T09:36:48.416Z,155.14
2022-11-09T09:38:56.379Z,151.64
2022-11-09T09:41:09.247Z,154.55
2022-11-09T09:43:41.552Z,157.78
2022-11-09T09:45:56.771Z,154.09
2022-11-09T09:48:24.143Z,153.86
2022-11-09T09:50:40.018Z,161.36
2022-11-09T09:53:22.274Z,171.48
2022-11-09T09:55:37.261Z,178.53
2022-11-09T09:57:50.958Z,180.37
2022-11-09T10:00:06.563Z,178.17
2022-11-09T10:02:34.583Z,166.54
2022-11-09T10:05:09.482Z,160.08
2022-11-09T10:07:33.868Z,156.93
2022-11-09T10:10:27.611Z,160.10
2022-11-09T10:13:31.107Z,150.65
2022-11-09T10:19:14.030Z,132.43
2022-11-09T10:21:49.665Z,135.60
2022-11-09T10:24:18.369Z,141.51
2022-11-09T10:26:55.255Z,135.40
2022-11-09T10:29:34.514Z,132.77
2022-11-09T10:32:34.425Z,134.03
2022-11-09T10:35:26.074Z,117.15
2022-11-09T10:40:58.270Z,112.03
2022-11-09T10:46:30.190Z,113.89
2022-11-09T10:49:34.849Z,111.11
2022-11-09T10:55:32.296Z,120.48
2022-11-09T10:58:32.041Z,119.50
2022-11-09T11:01:09.251Z,120.96
2022-11-09T11:03:45.751Z,122.72
2022-11-09T11:06:34.529Z,123.15
2022-11-09T11:09:31.992Z,125.58
2022-11-09T11:12:30.327Z,121.94
2022-11-09T11:15:24.042Z,125.16
2022-11-09T11:17:53.088Z,134.03
2022-11-09T11:27:04.314Z,133.45
2022-11-09T11:30:01.070Z,137.49
2022-11-09T11:32:44.231Z,133.77
2022-11-09T11:35:53.103Z,130.44
2022-11-09T11:38:36.566Z,129.24
2022-11-09T11:41:44.933Z,129.31
2022-11-09T11:44:32.574Z,124.90
2022-11-09T11:47:25.224Z,119.95
2022-11-09T11:50:46.434Z,120.78
2022-11-09T11:57:08.433Z,129.39
2022-11-09T12:00:34.715Z,129.90
2022-11-09T12:04:17.625Z,118.49
2022-11-09T12:07:27.096Z,114.80
2022-11-09T12:10:26.126Z,119.02
2022-11-09T12:13:25.208Z,116.12
2022-11-09T12:16:16.727Z,118.83
2022-11-09T12:22:48.728Z,121.12
2022-11-09T12:25:27.671Z,119.55
2022-11-09T12:28:31.863Z,119.96
2022-11-09T12:31:25.150Z,120.21
2022-11-09T12:34:08.273Z,120.10
2022-11-09T12:37:02.553Z,120.53
2022-11-09T12:39:51.261Z,116.84
2022-11-09T12:42:30.083Z,119.48
2022-11-09T12:45:08.134Z,117.35
2022-11-09T12:47:42.667Z,120.63
2022-11-09T12:50:14.965Z,125.95
2022-11-09T12:52:42.007Z,122.68
2022-11-09T12:55:10.240Z,117.14
2022-11-09T12:57:36.087Z,114.87
2022-11-09T13:00:04.603Z,113.91
2022-11-09T13:02:36.037Z,113.10
2022-11-09T13:05:04.348Z,111.84
2022-11-09T13:07:52.418Z,117.87
2022-11-09T13:10:34.634Z,111.80
2022-11-09T13:13:22.946Z,114.40
2022-11-09T13:16:09.138Z,113.08
2022-11-09T13:18:54.792Z,113.66
2022-11-09T13:21:39.598Z,119.09
2022-11-09T13:24:59.992Z,120.45
2022-11-09T13:27:47.743Z,122.70
2022-11-09T13:30:54.292Z,131.36
2022-11-09T13:33:29.251Z,131.48
2022-11-09T13:36:21.657Z,127.08
2022-11-09T13:38:48.178Z,140.19
2022-11-09T13:41:51.241Z,130.87
2022-11-09T13:44:32.874Z,135.66
2022-11-09T13:47:02.361Z,138.82
2022-11-09T13:49:49.841Z,141.45
2022-11-09T13:52:51.880Z,140.53
2022-11-09T13:55:39.620Z,137.65
2022-11-09T13:58:18.214Z,145.56
2022-11-09T14:00:49.781Z,146.04
2022-11-09T14:03:28.144Z,137.34
2022-11-09T14:06:00.393Z,175.48
2022-11-09T14:08:28.868Z,166.51
2022-11-09T14:12:03.078Z,166.45
2022-11-09T14:15:12.818Z,177.05
2022-11-09T14:17:56.122Z,168.67
2022-11-09T14:20:36.385Z,176.78
2022-11-09T14:23:01.600Z,173.39
2022-11-09T14:25:29.152Z,185.60
2022-11-09T14:28:00.565Z,167.44
2022-11-09T14:30:33.186Z,189.47
2022-11-09T14:33:00.051Z,206.01
2022-11-09T14:35:30.242Z,188.64
2022-11-09T14:37:58.486Z,192.24
2022-11-09T14:40:29.010Z,184.91
2022-11-09T14:43:00.162Z,178.76
2022-11-09T14:45:29.627Z,188.20
2022-11-09T14:48:00.734Z,236.19
2022-11-09T14:50:30.745Z,238.10
2022-11-09T14:52:58.448Z,238.73
2022-11-09T14:55:27.142Z,229.17
2022-11-09T14:57:57.996Z,230.47
2022-11-09T15:00:34.357Z,232.38
2022-11-09T15:03:00.936Z,249.93
2022-11-09T15:05:43.169Z,230.40
2022-11-09T15:08:18.528Z,237.47
2022-11-09T15:10:43.759Z,306.91
2022-11-09T15:13:09.258Z,285.71
2022-11-09T15:15:38.998Z,333.22
2022-11-09T15:18:05.302Z,245.64
2022-11-09T15:20:36.645Z,229.23
2022-11-09T15:23:04.256Z,219.81
2022-11-09T15:25:34.674Z,226.08
2022-11-09T15:28:18.417Z,239.96
2022-11-09T15:30:50.477Z,225.48
2022-11-09T15:33:30.799Z,221.07
2022-11-09T15:35:58.877Z,218.93
2022-11-09T15:38:34.938Z,216.04
2022-11-09T15:40:59.968Z,253.49
2022-11-09T15:43:25.281Z,252.37
2022-11-09T15:45:56.150Z,252.24
2022-11-09T15:48:20.833Z,252.95
2022-11-09T15:50:46.105Z,251.98
2022-11-09T15:53:12.547Z,283.56
2022-11-09T15:55:37.006Z,284.47
2022-11-09T15:58:02.153Z,314.48
2022-11-09T16:00:26.755Z,290.85
2022-11-09T16:02:54.054Z,323.69
2022-11-09T16:05:19.997Z,349.80
2022-11-09T16:07:51.594Z,337.03
2022-11-09T16:10:20.526Z,261.87
2022-11-09T16:12:46.618Z,274.33
2022-11-09T16:15:12.466Z,274.87
2022-11-09T16:17:36.668Z,291.74
2022-11-09T16:20:04.643Z,315.26
2022-11-09T16:22:33.780Z,300.64
2022-11-09T16:24:58.457Z,312.14
2022-11-09T16:30:12.619Z,323.22
2022-11-09T16:32:38.474Z,324.48
2022-11-09T16:35:26.000Z,326.32
2022-11-09T16:37:55.334Z,369.35
2022-11-09T16:40:20.735Z,398.50
2022-11-09T16:42:45.207Z,443.06
2022-11-09T16:45:15.992Z,433.00
2022-11-09T16:47:47.282Z,464.25
2022-11-09T16:50:15.076Z,401.17
2022-11-09T16:52:39.356Z,397.03
2022-11-09T16:55:03.911Z,423.61
2022-11-09T16:57:29.046Z,485.79
2022-11-09T16:59:53.432Z,596.76
2022-11-09T17:02:17.862Z,575.24
2022-11-09T17:04:42.737Z,498.80
2022-11-09T17:07:12.260Z,470.10
2022-11-09T17:09:38.051Z,485.80
2022-11-09T17:12:03.496Z,439.24
2022-11-09T17:14:31.225Z,377.22
2022-11-09T17:16:57.301Z,364.94
2022-11-09T17:19:22.689Z,374.10
2022-11-09T17:21:47.317Z,393.33
2022-11-09T17:24:14.665Z,405.04
2022-11-09T17:26:40.419Z,393.97
2022-11-09T17:29:04.983Z,421.57
2022-11-09T17:31:29.512Z,422.87
2022-11-09T17:33:59.873Z,433.50
2022-11-09T17:36:56.977Z,452.56
2022-11-09T17:39:16.285Z,459.33
2022-11-09T17:41:42.857Z,386.02
2022-11-09T17:44:07.593Z,425.17
2022-11-09T17:46:36.426Z,413.04
2022-11-09T17:49:02.666Z,414.50
2022-11-09T17:51:30.283Z,396.44
2022-11-09T17:53:55.620Z,391.70
2022-11-09T17:56:22.616Z,411.64
2022-11-09T17:58:48.601Z,398.89
2022-11-09T18:01:18.919Z,400.79
2022-11-09T18:03:44.002Z,392.57
2022-11-09T18:06:14.697Z,378.84
2022-11-09T18:08:43.538Z,401.71
2022-11-09T18:11:08.240Z,390.77
2022-11-09T18:13:35.862Z,353.95
2022-11-09T18:16:01.045Z,353.97
2022-11-09T18:18:25.585Z,340.90
2022-11-09T18:20:52.455Z,343.66
2022-11-09T18:23:17.552Z,335.19
2022-11-09T18:25:42.101Z,342.02
2022-11-09T18:28:07.163Z,332.95
2022-11-09T18:30:35.110Z,327.51
2022-11-09T18:32:59.385Z,328.47
2022-11-09T18:35:23.983Z,335.32
2022-11-09T18:37:49.828Z,324.63
2022-11-09T18:40:15.212Z,318.66
2022-11-09T18:42:39.802Z,324.56
2022-11-09T18:45:04.832Z,335.26
2022-11-09T18:47:31.559Z,314.22
2022-11-09T18:49:55.903Z,322.32
2022-11-09T18:52:21.714Z,322.60
2022-11-09T18:54:46.030Z,309.69
2022-11-09T18:57:14.809Z,303.64
2022-11-09T18:59:44.014Z,307.99
2022-11-09T19:02:09.139Z,311.16
2022-11-09T19:04:35.987Z,326.95
2022-11-09T19:07:01.330Z,323.18
2022-11-09T19:09:42.063Z,315.52
2022-11-09T19:12:11.636Z,303.49
2022-11-09T19:14:46.374Z,297.71
2022-11-09T19:17:16.457Z,312.45
2022-11-09T19:19:46.706Z,305.84
2022-11-09T19:22:19.820Z,315.69
2022-11-09T19:24:45.022Z,312.66
2022-11-09T19:27:09.263Z,357.66
2022-11-09T19:29:36.335Z,360.36
2022-11-09T19:32:00.640Z,385.38
2022-11-09T19:34:25.253Z,369.18
2022-11-09T19:36:53.230Z,376.11
2022-11-09T19:39:19.405Z,355.20
2022-11-09T19:41:45.022Z,331.96
2022-11-09T19:44:17.668Z,327.70
2022-11-09T19:46:43.067Z,351.61
2022-11-09T19:49:10.086Z,349.25
2022-11-09T19:51:35.949Z,362.10
2022-11-09T19:54:07.820Z,359.31
2022-11-09T19:56:37.139Z,355.57
2022-11-09T19:59:04.988Z,362.35
2022-11-09T20:01:31.307Z,356.87
2022-11-09T20:03:59.610Z,339.90
2022-11-09T20:06:27.225Z,348.88
2022-11-09T20:08:52.311Z,378.36
2022-11-09T20:11:43.850Z,386.25
2022-11-09T20:14:11.992Z,356.58
2022-11-09T20:16:42.396Z,365.55
2022-11-09T20:19:15.722Z,350.00
2022-11-09T20:21:41.424Z,328.25
2022-11-09T20:24:15.780Z,333.06
2022-11-09T20:26:44.589Z,316.00
2022-11-09T20:29:09.710Z,302.60
2022-11-09T20:31:34.188Z,310.88
2022-11-09T20:34:08.536Z,296.18
2022-11-09T20:36:46.060Z,290.01
2022-11-09T20:39:11.236Z,293.34
2022-11-09T20:41:36.651Z,286.38
2022-11-09T20:44:03.610Z,286.69
2022-11-09T20:46:34.346Z,282.03
2022-11-09T20:49:00.055Z,279.56
2022-11-09T20:51:28.952Z,279.98
2022-11-09T20:53:55.133Z,284.72
2022-11-09T20:56:25.401Z,285.99
2022-11-09T20:58:50.447Z,283.93
2022-11-09T21:01:22.719Z,283.92
2022-11-09T21:03:49.221Z,274.38
2022-11-09T21:06:16.361Z,283.15
2022-11-09T21:08:42.747Z,279.42
2022-11-09T21:11:14.249Z,264.89
2022-11-09T21:13:39.096Z,271.29
2022-11-09T21:16:20.182Z,271.48
2022-11-09T21:18:46.144Z,270.08
2022-11-09T21:21:20.006Z,269.31
2022-11-09T21:23:58.986Z,248.27
2022-11-09T21:26:36.220Z,248.01
2022-11-09T21:29:14.176Z,248.47
2022-11-09T21:31:43.986Z,235.07
2022-11-09T21:34:09.806Z,252.91
2022-11-09T21:36:36.400Z,242.64
2022-11-09T21:39:08.048Z,235.71
2022-11-09T21:41:43.144Z,239.51
2022-11-09T21:44:17.465Z,239.58
2022-11-09T21:46:47.502Z,241.99
2022-11-09T21:49:15.938Z,239.33
2022-11-09T21:51:43.636Z,232.98
2022-11-09T21:54:12.012Z,227.66
2022-11-09T21:56:50.628Z,239.12
2022-11-09T21:59:26.538Z,222.39
2022-11-09T22:01:55.250Z,219.32
2022-11-09T22:04:20.944Z,225.78
2022-11-09T22:06:51.197Z,220.09
2022-11-09T22:09:21.034Z,219.98
2022-11-09T22:11:59.804Z,220.67
2022-11-09T22:14:37.909Z,217.84
2022-11-09T22:17:18.599Z,215.41
2022-11-09T22:20:00.483Z,208.72
2022-11-09T22:22:30.698Z,207.57
2022-11-09T22:25:09.677Z,207.64
2022-11-09T22:27:41.543Z,202.97
2022-11-09T22:30:16.567Z,207.50
2022-11-09T22:32:44.138Z,202.23
2022-11-09T22:35:10.885Z,205.97
2022-11-09T22:37:36.346Z,201.34
2022-11-09T22:40:01.244Z,199.03
2022-11-09T22:42:26.812Z,194.11
2022-11-09T22:44:51.642Z,196.97
2022-11-09T22:47:17.009Z,198.45
2022-11-09T22:49:45.285Z,198.46
2022-11-09T22:52:10.591Z,203.12
2022-11-09T22:54:35.855Z,197.60
2022-11-09T22:57:02.281Z,196.43
2022-11-09T22:59:27.393Z,198.59
2022-11-09T23:01:54.860Z,200.03
2022-11-09T23:04:23.545Z,203.81
2022-11-09T23:06:51.788Z,198.36
2022-11-09T23:09:22.390Z,197.13
2022-11-09T23:11:47.800Z,190.75
2022-11-09T23:14:14.547Z,194.37
2022-11-09T23:16:40.755Z,193.71
2022-11-09T23:19:03.365Z,195.40
2022-11-09T23:21:31.653Z,197.00
2022-11-09T23:24:03.251Z,194.76
2022-11-09T23:26:29.988Z,193.24
2022-11-09T23:28:55.406Z,190.00
2022-11-09T23:31:25.214Z,194.12
2022-11-09T23:33:52.833Z,204.27
2022-11-09T23:36:17.994Z,220.06
2022-11-09T23:38:43.960Z,225.51
2022-11-09T23:41:14.859Z,217.74
2022-11-09T23:43:42.974Z,212.43
2022-11-09T23:46:16.517Z,213.76
2022-11-09T23:48:46.025Z,210.58
2022-11-09T23:51:12.865Z,199.95
2022-11-09T23:53:39.652Z,205.04
2022-11-09T23:56:05.877Z,205.84
2022-11-09T23:58:34.325Z,210.65
